sensor_id;sensor_type;location;lat;lon;timestamp;P1;durP1;ratioP1;P2;durP2;ratioP2
45354;SDS011;31091;48.758;9.150;2023-02-28T00:01:30;4.53;;;2.05;;
45354;SDS011;31091;48.758;9.150;2023-02-28T00:03:56;4.50;;;2.00;;
45354;SDS011;31091;48.758;9.150;2023-02-28T00:06:21;4.82;;;2.45;;
45354;SDS011;31091;48.758;9.150;2023-02-28T00:08:46;4.47;;;2.70;;
45354;SDS011;31091;48.758;9.150;2023-02-28T00:11:13;7.07;;;2.30;;
45354;SDS011;31091;48.758;9.150;2023-02-28T00:13:39;4.05;;;2.70;;
45354;SDS011;31091;48.758;9.150;2023-02-28T00:16:06;2.92;;;2.08;;
45354;SDS011;31091;48.758;9.150;2023-02-28T00:18:32;7.25;;;2.28;;
45354;SDS011;31091;48.758;9.150;2023-02-28T00:20:57;5.30;;;2.13;;
45354;SDS011;31091;48.758;9.150;2023-02-28T00:23:22;3.28;;;2.08;;
45354;SDS011;31091;48.758;9.150;2023-02-28T00:25:48;3.83;;;2.28;;
45354;SDS011;31091;48.758;9.150;2023-02-28T00:28:13;4.97;;;2.50;;
45354;SDS011;31091;48.758;9.150;2023-02-28T00:30:38;7.83;;;3.00;;
45354;SDS011;31091;48.758;9.150;2023-02-28T00:33:03;6.72;;;2.88;;
45354;SDS011;31091;48.758;9.150;2023-02-28T00:35:29;5.13;;;2.33;;
45354;SDS011;31091;48.758;9.150;2023-02-28T00:37:54;5.55;;;2.15;;
45354;SDS011;31091;48.758;9.150;2023-02-28T00:40:19;5.47;;;2.70;;
45354;SDS011;31091;48.758;9.150;2023-02-28T00:42:44;3.77;;;2.20;;
45354;SDS011;31091;48.758;9.150;2023-02-28T00:45:10;5.33;;;2.13;;
45354;SDS011;31091;48.758;9.150;2023-02-28T00:47:35;9.40;;;2.95;;
45354;SDS011;31091;48.758;9.150;2023-02-28T00:50:00;4.57;;;2.00;;
45354;SDS011;31091;48.758;9.150;2023-02-28T00:52:26;5.20;;;2.42;;
45354;SDS011;31091;48.758;9.150;2023-02-28T00:54:51;4.55;;;2.08;;
45354;SDS011;31091;48.758;9.150;2023-02-28T00:57:16;4.13;;;2.23;;
45354;SDS011;31091;48.758;9.150;2023-02-28T00:59:41;8.83;;;3.40;;
45354;SDS011;31091;48.758;9.150;2023-02-28T01:02:07;5.67;;;2.10;;
45354;SDS011;31091;48.758;9.150;2023-02-28T01:04:32;7.53;;;3.00;;
45354;SDS011;31091;48.758;9.150;2023-02-28T01:06:57;3.97;;;2.28;;
45354;SDS011;31091;48.758;9.150;2023-02-28T01:09:22;6.53;;;2.45;;
45354;SDS011;31091;48.758;9.150;2023-02-28T01:11:48;6.72;;;2.88;;
45354;SDS011;31091;48.758;9.150;2023-02-28T01:14:14;7.47;;;2.65;;
45354;SDS011;31091;48.758;9.150;2023-02-28T01:16:39;4.95;;;2.30;;
45354;SDS011;31091;48.758;9.150;2023-02-28T01:19:04;5.68;;;2.53;;
45354;SDS011;31091;48.758;9.150;2023-02-28T01:21:30;5.33;;;2.60;;
45354;SDS011;31091;48.758;9.150;2023-02-28T01:23:56;6.32;;;3.08;;
45354;SDS011;31091;48.758;9.150;2023-02-28T01:26:22;5.70;;;2.13;;
45354;SDS011;31091;48.758;9.150;2023-02-28T01:28:48;5.65;;;2.38;;
45354;SDS011;31091;48.758;9.150;2023-02-28T01:31:13;5.70;;;2.10;;
45354;SDS011;31091;48.758;9.150;2023-02-28T01:33:39;8.95;;;2.83;;
45354;SDS011;31091;48.758;9.150;2023-02-28T01:36:06;4.70;;;2.22;;
45354;SDS011;31091;48.758;9.150;2023-02-28T01:38:31;4.35;;;2.22;;
45354;SDS011;31091;48.758;9.150;2023-02-28T01:40:57;4.07;;;2.45;;
45354;SDS011;31091;48.758;9.150;2023-02-28T01:43:24;4.20;;;2.10;;
45354;SDS011;31091;48.758;9.150;2023-02-28T01:45:50;5.53;;;2.83;;
45354;SDS011;31091;48.758;9.150;2023-02-28T01:48:15;7.35;;;3.13;;
45354;SDS011;31091;48.758;9.150;2023-02-28T01:50:41;4.63;;;2.30;;
45354;SDS011;31091;48.758;9.150;2023-02-28T01:53:10;5.25;;;2.75;;
45354;SDS011;31091;48.758;9.150;2023-02-28T01:55:36;5.88;;;2.40;;
45354;SDS011;31091;48.758;9.150;2023-02-28T01:58:04;5.80;;;2.67;;
45354;SDS011;31091;48.758;9.150;2023-02-28T02:00:30;4.40;;;2.00;;
45354;SDS011;31091;48.758;9.150;2023-02-28T02:02:58;6.72;;;3.05;;
45354;SDS011;31091;48.758;9.150;2023-02-28T02:05:25;4.28;;;2.80;;
45354;SDS011;31091;48.758;9.150;2023-02-28T02:07:55;6.03;;;3.15;;
45354;SDS011;31091;48.758;9.150;2023-02-28T02:10:24;6.00;;;2.75;;
45354;SDS011;31091;48.758;9.150;2023-02-28T02:15:34;6.28;;;2.75;;
45354;SDS011;31091;48.758;9.150;2023-02-28T02:18:03;6.93;;;3.20;;
45354;SDS011;31091;48.758;9.150;2023-02-28T02:25:56;4.95;;;2.70;;
45354;SDS011;31091;48.758;9.150;2023-02-28T02:36:23;5.90;;;2.78;;
45354;SDS011;31091;48.758;9.150;2023-02-28T02:38:50;7.68;;;3.30;;
45354;SDS011;31091;48.758;9.150;2023-02-28T02:41:24;7.07;;;3.05;;
45354;SDS011;31091;48.758;9.150;2023-02-28T02:44:02;5.80;;;3.22;;
45354;SDS011;31091;48.758;9.150;2023-02-28T02:46:30;5.95;;;2.78;;
45354;SDS011;31091;48.758;9.150;2023-02-28T02:48:58;4.47;;;2.50;;
45354;SDS011;31091;48.758;9.150;2023-02-28T02:51:24;6.50;;;3.30;;
45354;SDS011;31091;48.758;9.150;2023-02-28T02:53:51;7.32;;;4.00;;
45354;SDS011;31091;48.758;9.150;2023-02-28T02:56:18;5.30;;;2.63;;
45354;SDS011;31091;48.758;9.150;2023-02-28T02:58:44;5.65;;;3.00;;
45354;SDS011;31091;48.758;9.150;2023-02-28T03:01:12;7.25;;;3.25;;
45354;SDS011;31091;48.758;9.150;2023-02-28T03:03:39;7.15;;;3.10;;
45354;SDS011;31091;48.758;9.150;2023-02-28T03:06:05;8.57;;;2.90;;
45354;SDS011;31091;48.758;9.150;2023-02-28T03:08:33;4.88;;;3.17;;
45354;SDS011;31091;48.758;9.150;2023-02-28T03:11:00;8.63;;;3.33;;
45354;SDS011;31091;48.758;9.150;2023-02-28T03:13:43;5.53;;;3.15;;
45354;SDS011;31091;48.758;9.150;2023-02-28T03:18:52;5.05;;;2.65;;
45354;SDS011;31091;48.758;9.150;2023-02-28T03:23:46;7.60;;;2.90;;
45354;SDS011;31091;48.758;9.150;2023-02-28T03:26:21;6.03;;;2.90;;
45354;SDS011;31091;48.758;9.150;2023-02-28T03:29:04;8.32;;;3.95;;
45354;SDS011;31091;48.758;9.150;2023-02-28T03:31:41;4.70;;;2.85;;
45354;SDS011;31091;48.758;9.150;2023-02-28T03:34:14;7.75;;;3.53;;
45354;SDS011;31091;48.758;9.150;2023-02-28T03:36:43;6.25;;;3.20;;
45354;SDS011;31091;48.758;9.150;2023-02-28T03:39:17;5.13;;;3.35;;
45354;SDS011;31091;48.758;9.150;2023-02-28T03:41:49;8.75;;;3.63;;
45354;SDS011;31091;48.758;9.150;2023-02-28T03:44:18;4.82;;;3.05;;
45354;SDS011;31091;48.758;9.150;2023-02-28T03:46:48;6.22;;;3.70;;
45354;SDS011;31091;48.758;9.150;2023-02-28T03:49:16;6.40;;;3.28;;
45354;SDS011;31091;48.758;9.150;2023-02-28T03:51:42;5.43;;;3.63;;
45354;SDS011;31091;48.758;9.150;2023-02-28T03:54:09;7.82;;;3.35;;
45354;SDS011;31091;48.758;9.150;2023-02-28T03:56:38;6.70;;;3.92;;
45354;SDS011;31091;48.758;9.150;2023-02-28T03:59:05;9.95;;;3.53;;
45354;SDS011;31091;48.758;9.150;2023-02-28T04:01:42;7.05;;;3.50;;
45354;SDS011;31091;48.758;9.150;2023-02-28T04:04:08;10.00;;;4.57;;
45354;SDS011;31091;48.758;9.150;2023-02-28T04:06:34;6.15;;;3.58;;
45354;SDS011;31091;48.758;9.150;2023-02-28T04:08:59;7.78;;;3.40;;
45354;SDS011;31091;48.758;9.150;2023-02-28T04:12:07;7.32;;;3.80;;
45354;SDS011;31091;48.758;9.150;2023-02-28T04:14:13;5.45;;;3.00;;
45354;SDS011;31091;48.758;9.150;2023-02-28T04:16:40;7.57;;;3.45;;
45354;SDS011;31091;48.758;9.150;2023-02-28T04:19:06;6.05;;;3.25;;
45354;SDS011;31091;48.758;9.150;2023-02-28T04:21:32;5.65;;;3.30;;
45354;SDS011;31091;48.758;9.150;2023-02-28T04:23:57;7.35;;;3.88;;
45354;SDS011;31091;48.758;9.150;2023-02-28T04:26:32;10.70;;;3.88;;
45354;SDS011;31091;48.758;9.150;2023-02-28T04:28:58;10.90;;;4.00;;
45354;SDS011;31091;48.758;9.150;2023-02-28T04:31:23;6.60;;;3.78;;
45354;SDS011;31091;48.758;9.150;2023-02-28T04:33:48;7.32;;;3.63;;
45354;SDS011;31091;48.758;9.150;2023-02-28T04:36:14;7.97;;;4.10;;
45354;SDS011;31091;48.758;9.150;2023-02-28T04:38:39;6.28;;;3.40;;
45354;SDS011;31091;48.758;9.150;2023-02-28T04:41:05;6.57;;;3.30;;
45354;SDS011;31091;48.758;9.150;2023-02-28T04:43:30;5.68;;;3.00;;
45354;SDS011;31091;48.758;9.150;2023-02-28T04:45:56;7.20;;;4.13;;
45354;SDS011;31091;48.758;9.150;2023-02-28T04:48:22;10.30;;;4.25;;
45354;SDS011;31091;48.758;9.150;2023-02-28T04:50:48;7.55;;;3.50;;
45354;SDS011;31091;48.758;9.150;2023-02-28T04:53:14;5.57;;;3.70;;
45354;SDS011;31091;48.758;9.150;2023-02-28T04:55:39;7.47;;;3.20;;
45354;SDS011;31091;48.758;9.150;2023-02-28T04:58:05;7.15;;;3.63;;
45354;SDS011;31091;48.758;9.150;2023-02-28T05:00:31;5.80;;;3.90;;
45354;SDS011;31091;48.758;9.150;2023-02-28T05:02:56;7.32;;;3.60;;
45354;SDS011;31091;48.758;9.150;2023-02-28T05:05:21;5.50;;;3.30;;
45354;SDS011;31091;48.758;9.150;2023-02-28T05:07:46;5.93;;;3.58;;
45354;SDS011;31091;48.758;9.150;2023-02-28T05:10:12;6.40;;;3.57;;
45354;SDS011;31091;48.758;9.150;2023-02-28T05:12:37;8.48;;;4.45;;
45354;SDS011;31091;48.758;9.150;2023-02-28T05:15:04;6.82;;;4.03;;
45354;SDS011;31091;48.758;9.150;2023-02-28T05:17:29;7.43;;;4.07;;
45354;SDS011;31091;48.758;9.150;2023-02-28T05:19:55;7.05;;;4.13;;
45354;SDS011;31091;48.758;9.150;2023-02-28T05:22:20;8.53;;;4.07;;
45354;SDS011;31091;48.758;9.150;2023-02-28T05:24:45;11.53;;;5.03;;
45354;SDS011;31091;48.758;9.150;2023-02-28T05:27:10;8.43;;;4.47;;
45354;SDS011;31091;48.758;9.150;2023-02-28T05:29:36;9.15;;;4.47;;
45354;SDS011;31091;48.758;9.150;2023-02-28T05:32:06;8.15;;;4.60;;
45354;SDS011;31091;48.758;9.150;2023-02-28T05:34:32;8.38;;;3.72;;
45354;SDS011;31091;48.758;9.150;2023-02-28T05:36:57;10.07;;;4.70;;
45354;SDS011;31091;48.758;9.150;2023-02-28T05:39:22;7.83;;;4.37;;
45354;SDS011;31091;48.758;9.150;2023-02-28T05:41:47;9.20;;;4.07;;
45354;SDS011;31091;48.758;9.150;2023-02-28T05:44:12;10.70;;;4.60;;
45354;SDS011;31091;48.758;9.150;2023-02-28T05:46:38;8.80;;;4.17;;
45354;SDS011;31091;48.758;9.150;2023-02-28T05:49:03;10.10;;;5.78;;
45354;SDS011;31091;48.758;9.150;2023-02-28T05:51:28;13.85;;;4.38;;
45354;SDS011;31091;48.758;9.150;2023-02-28T05:53:54;11.30;;;4.80;;
45354;SDS011;31091;48.758;9.150;2023-02-28T05:56:19;8.15;;;4.15;;
45354;SDS011;31091;48.758;9.150;2023-02-28T05:58:44;5.97;;;3.90;;
45354;SDS011;31091;48.758;9.150;2023-02-28T06:01:23;9.57;;;4.90;;
45354;SDS011;31091;48.758;9.150;2023-02-28T06:03:49;6.95;;;3.90;;
45354;SDS011;31091;48.758;9.150;2023-02-28T06:06:14;8.15;;;4.32;;
45354;SDS011;31091;48.758;9.150;2023-02-28T06:08:40;9.52;;;4.75;;
45354;SDS011;31091;48.758;9.150;2023-02-28T06:11:05;7.30;;;4.00;;
45354;SDS011;31091;48.758;9.150;2023-02-28T06:13:31;10.20;;;4.90;;
45354;SDS011;31091;48.758;9.150;2023-02-28T06:15:56;10.00;;;5.10;;
45354;SDS011;31091;48.758;9.150;2023-02-28T06:18:25;10.60;;;4.95;;
45354;SDS011;31091;48.758;9.150;2023-02-28T06:20:53;8.80;;;3.77;;
45354;SDS011;31091;48.758;9.150;2023-02-28T06:23:19;10.45;;;4.90;;
45354;SDS011;31091;48.758;9.150;2023-02-28T06:25:45;8.20;;;5.32;;
45354;SDS011;31091;48.758;9.150;2023-02-28T06:28:10;9.38;;;4.63;;
45354;SDS011;31091;48.758;9.150;2023-02-28T06:30:36;9.03;;;5.27;;
45354;SDS011;31091;48.758;9.150;2023-02-28T06:33:02;8.48;;;4.40;;
45354;SDS011;31091;48.758;9.150;2023-02-28T06:35:27;10.52;;;4.95;;
45354;SDS011;31091;48.758;9.150;2023-02-28T06:37:52;10.30;;;4.60;;
45354;SDS011;31091;48.758;9.150;2023-02-28T06:40:17;10.73;;;5.40;;
45354;SDS011;31091;48.758;9.150;2023-02-28T06:42:42;10.75;;;5.00;;
45354;SDS011;31091;48.758;9.150;2023-02-28T06:45:09;8.95;;;4.60;;
45354;SDS011;31091;48.758;9.150;2023-02-28T06:47:35;8.02;;;5.35;;
45354;SDS011;31091;48.758;9.150;2023-02-28T06:50:00;9.52;;;5.63;;
45354;SDS011;31091;48.758;9.150;2023-02-28T06:52:26;10.05;;;4.80;;
45354;SDS011;31091;48.758;9.150;2023-02-28T06:54:51;9.52;;;5.55;;
45354;SDS011;31091;48.758;9.150;2023-02-28T06:57:25;9.90;;;4.47;;
45354;SDS011;31091;48.758;9.150;2023-02-28T06:59:50;12.20;;;5.32;;
45354;SDS011;31091;48.758;9.150;2023-02-28T07:02:15;8.32;;;4.80;;
45354;SDS011;31091;48.758;9.150;2023-02-28T07:04:40;11.73;;;5.50;;
45354;SDS011;31091;48.758;9.150;2023-02-28T07:07:09;11.88;;;5.63;;
45354;SDS011;31091;48.758;9.150;2023-02-28T07:09:34;10.37;;;5.40;;
45354;SDS011;31091;48.758;9.150;2023-02-28T07:12:00;7.73;;;4.93;;
45354;SDS011;31091;48.758;9.150;2023-02-28T07:14:25;11.57;;;5.88;;
45354;SDS011;31091;48.758;9.150;2023-02-28T07:16:50;9.13;;;4.88;;
45354;SDS011;31091;48.758;9.150;2023-02-28T07:19:16;10.00;;;5.22;;
45354;SDS011;31091;48.758;9.150;2023-02-28T07:21:41;9.17;;;5.47;;
45354;SDS011;31091;48.758;9.150;2023-02-28T07:24:06;12.37;;;6.10;;
45354;SDS011;31091;48.758;9.150;2023-02-28T07:26:31;9.98;;;5.45;;
45354;SDS011;31091;48.758;9.150;2023-02-28T07:28:59;10.85;;;5.50;;
45354;SDS011;31091;48.758;9.150;2023-02-28T07:31:24;11.60;;;5.63;;
45354;SDS011;31091;48.758;9.150;2023-02-28T07:33:49;12.07;;;6.25;;
45354;SDS011;31091;48.758;9.150;2023-02-28T07:36:15;10.87;;;5.03;;
45354;SDS011;31091;48.758;9.150;2023-02-28T07:38:42;10.48;;;5.72;;
45354;SDS011;31091;48.758;9.150;2023-02-28T07:41:08;11.40;;;6.40;;
45354;SDS011;31091;48.758;9.150;2023-02-28T07:43:34;10.57;;;6.15;;
45354;SDS011;31091;48.758;9.150;2023-02-28T07:46:03;11.40;;;5.75;;
45354;SDS011;31091;48.758;9.150;2023-02-28T07:48:28;17.75;;;7.90;;
45354;SDS011;31091;48.758;9.150;2023-02-28T07:50:57;12.03;;;7.13;;
45354;SDS011;31091;48.758;9.150;2023-02-28T07:53:22;11.98;;;6.68;;
45354;SDS011;31091;48.758;9.150;2023-02-28T07:55:48;12.53;;;7.47;;
45354;SDS011;31091;48.758;9.150;2023-02-28T07:58:13;22.73;;;7.80;;
45354;SDS011;31091;48.758;9.150;2023-02-28T08:00:38;12.57;;;5.87;;
45354;SDS011;31091;48.758;9.150;2023-02-28T08:03:03;10.10;;;6.43;;
45354;SDS011;31091;48.758;9.150;2023-02-28T08:05:28;11.13;;;6.33;;
45354;SDS011;31091;48.758;9.150;2023-02-28T08:07:55;10.48;;;5.80;;
45354;SDS011;31091;48.758;9.150;2023-02-28T08:10:20;13.73;;;7.95;;
45354;SDS011;31091;48.758;9.150;2023-02-28T08:12:45;11.55;;;6.45;;
45354;SDS011;31091;48.758;9.150;2023-02-28T08:15:10;11.63;;;6.28;;
45354;SDS011;31091;48.758;9.150;2023-02-28T08:17:36;12.73;;;6.50;;
45354;SDS011;31091;48.758;9.150;2023-02-28T08:20:01;10.15;;;5.88;;
45354;SDS011;31091;48.758;9.150;2023-02-28T08:22:26;13.87;;;6.40;;
45354;SDS011;31091;48.758;9.150;2023-02-28T08:24:51;11.67;;;6.27;;
45354;SDS011;31091;48.758;9.150;2023-02-28T08:27:16;11.07;;;6.50;;
45354;SDS011;31091;48.758;9.150;2023-02-28T08:29:42;11.75;;;6.88;;
45354;SDS011;31091;48.758;9.150;2023-02-28T08:32:07;12.80;;;6.43;;
45354;SDS011;31091;48.758;9.150;2023-02-28T08:34:32;12.17;;;6.87;;
45354;SDS011;31091;48.758;9.150;2023-02-28T08:36:58;10.63;;;6.57;;
45354;SDS011;31091;48.758;9.150;2023-02-28T08:39:23;11.10;;;6.43;;
45354;SDS011;31091;48.758;9.150;2023-02-28T08:41:48;15.00;;;7.37;;
45354;SDS011;31091;48.758;9.150;2023-02-28T08:44:13;11.53;;;6.70;;
45354;SDS011;31091;48.758;9.150;2023-02-28T08:46:39;10.10;;;6.63;;
45354;SDS011;31091;48.758;9.150;2023-02-28T08:49:04;12.23;;;7.03;;
45354;SDS011;31091;48.758;9.150;2023-02-28T08:51:29;12.52;;;6.75;;
45354;SDS011;31091;48.758;9.150;2023-02-28T08:53:57;11.45;;;6.68;;
45354;SDS011;31091;48.758;9.150;2023-02-28T08:56:22;13.00;;;7.03;;
45354;SDS011;31091;48.758;9.150;2023-02-28T08:58:49;11.05;;;6.53;;
45354;SDS011;31091;48.758;9.150;2023-02-28T09:01:21;11.00;;;6.50;;
45354;SDS011;31091;48.758;9.150;2023-02-28T09:03:47;10.77;;;6.57;;
45354;SDS011;31091;48.758;9.150;2023-02-28T09:06:13;10.57;;;6.30;;
45354;SDS011;31091;48.758;9.150;2023-02-28T09:08:39;12.15;;;7.10;;
45354;SDS011;31091;48.758;9.150;2023-02-28T09:11:04;11.85;;;6.63;;
45354;SDS011;31091;48.758;9.150;2023-02-28T09:13:30;12.83;;;6.60;;
45354;SDS011;31091;48.758;9.150;2023-02-28T09:15:59;12.65;;;6.80;;
45354;SDS011;31091;48.758;9.150;2023-02-28T09:18:24;14.13;;;6.90;;
45354;SDS011;31091;48.758;9.150;2023-02-28T09:20:50;13.25;;;7.30;;
45354;SDS011;31091;48.758;9.150;2023-02-28T09:23:15;11.82;;;6.80;;
45354;SDS011;31091;48.758;9.150;2023-02-28T09:28:12;13.15;;;7.35;;
45354;SDS011;31091;48.758;9.150;2023-02-28T09:30:40;14.75;;;7.70;;
45354;SDS011;31091;48.758;9.150;2023-02-28T09:33:05;11.37;;;6.67;;
45354;SDS011;31091;48.758;9.150;2023-02-28T09:35:31;17.13;;;7.07;;
45354;SDS011;31091;48.758;9.150;2023-02-28T09:37:56;12.05;;;7.32;;
45354;SDS011;31091;48.758;9.150;2023-02-28T09:40:23;12.02;;;7.03;;
45354;SDS011;31091;48.758;9.150;2023-02-28T09:42:51;10.43;;;6.60;;
45354;SDS011;31091;48.758;9.150;2023-02-28T09:45:24;12.90;;;6.80;;
45354;SDS011;31091;48.758;9.150;2023-02-28T09:47:51;14.32;;;7.20;;
45354;SDS011;31091;48.758;9.150;2023-02-28T09:52:57;14.25;;;7.03;;
45354;SDS011;31091;48.758;9.150;2023-02-28T09:57:52;13.00;;;6.90;;
45354;SDS011;31091;48.758;9.150;2023-02-28T10:00:30;10.80;;;6.43;;
45354;SDS011;31091;48.758;9.150;2023-02-28T10:03:15;10.63;;;6.60;;
45354;SDS011;31091;48.758;9.150;2023-02-28T10:06:02;16.38;;;7.53;;
45354;SDS011;31091;48.758;9.150;2023-02-28T10:08:33;12.43;;;7.57;;
45354;SDS011;31091;48.758;9.150;2023-02-28T10:11:01;10.77;;;6.55;;
45354;SDS011;31091;48.758;9.150;2023-02-28T10:14:12;11.82;;;7.10;;
45354;SDS011;31091;48.758;9.150;2023-02-28T10:16:20;13.07;;;7.43;;
45354;SDS011;31091;48.758;9.150;2023-02-28T10:18:47;12.93;;;6.78;;
45354;SDS011;31091;48.758;9.150;2023-02-28T10:21:16;14.07;;;7.95;;
45354;SDS011;31091;48.758;9.150;2023-02-28T10:23:43;12.10;;;7.93;;
45354;SDS011;31091;48.758;9.150;2023-02-28T10:26:13;16.48;;;8.02;;
45354;SDS011;31091;48.758;9.150;2023-02-28T10:28:40;12.75;;;6.53;;
45354;SDS011;31091;48.758;9.150;2023-02-28T10:31:08;12.05;;;6.55;;
45354;SDS011;31091;48.758;9.150;2023-02-28T10:33:34;13.55;;;7.15;;
45354;SDS011;31091;48.758;9.150;2023-02-28T10:36:00;22.45;;;7.55;;
45354;SDS011;31091;48.758;9.150;2023-02-28T10:38:34;11.30;;;7.30;;
45354;SDS011;31091;48.758;9.150;2023-02-28T10:43:30;11.10;;;6.38;;
45354;SDS011;31091;48.758;9.150;2023-02-28T10:48:41;11.45;;;6.90;;
45354;SDS011;31091;48.758;9.150;2023-02-28T10:51:11;14.05;;;8.48;;
45354;SDS011;31091;48.758;9.150;2023-02-28T10:53:38;11.38;;;6.32;;
45354;SDS011;31091;48.758;9.150;2023-02-28T10:56:14;11.27;;;6.82;;
45354;SDS011;31091;48.758;9.150;2023-02-28T10:58:57;12.75;;;7.07;;
45354;SDS011;31091;48.758;9.150;2023-02-28T11:01:24;12.70;;;7.65;;
45354;SDS011;31091;48.758;9.150;2023-02-28T11:03:53;13.98;;;7.72;;
45354;SDS011;31091;48.758;9.150;2023-02-28T11:08:44;12.77;;;6.83;;
45354;SDS011;31091;48.758;9.150;2023-02-28T11:11:10;13.75;;;8.50;;
45354;SDS011;31091;48.758;9.150;2023-02-28T11:13:35;13.33;;;8.83;;
45354;SDS011;31091;48.758;9.150;2023-02-28T11:16:06;12.95;;;7.28;;
45354;SDS011;31091;48.758;9.150;2023-02-28T11:21:06;12.27;;;7.80;;
45354;SDS011;31091;48.758;9.150;2023-02-28T11:23:33;11.52;;;6.80;;
45354;SDS011;31091;48.758;9.150;2023-02-28T11:26:02;12.38;;;7.38;;
45354;SDS011;31091;48.758;9.150;2023-02-28T11:28:33;11.85;;;7.28;;
45354;SDS011;31091;48.758;9.150;2023-02-28T11:31:00;12.52;;;7.03;;
45354;SDS011;31091;48.758;9.150;2023-02-28T11:33:27;10.60;;;7.30;;
45354;SDS011;31091;48.758;9.150;2023-02-28T11:35:53;12.55;;;6.85;;
45354;SDS011;31091;48.758;9.150;2023-02-28T11:38:23;12.93;;;7.25;;
45354;SDS011;31091;48.758;9.150;2023-02-28T11:43:39;11.38;;;6.72;;
45354;SDS011;31091;48.758;9.150;2023-02-28T11:46:07;13.45;;;7.20;;
45354;SDS011;31091;48.758;9.150;2023-02-28T11:48:47;15.35;;;7.88;;
45354;SDS011;31091;48.758;9.150;2023-02-28T11:59:08;12.48;;;7.72;;
45354;SDS011;31091;48.758;9.150;2023-02-28T12:01:58;12.05;;;7.40;;
45354;SDS011;31091;48.758;9.150;2023-02-28T12:04:36;12.18;;;7.25;;
45354;SDS011;31091;48.758;9.150;2023-02-28T12:07:09;13.82;;;7.80;;
45354;SDS011;31091;48.758;9.150;2023-02-28T12:17:22;11.73;;;6.88;;
45354;SDS011;31091;48.758;9.150;2023-02-28T12:22:30;11.90;;;6.57;;
45354;SDS011;31091;48.758;9.150;2023-02-28T12:27:35;12.20;;;7.47;;
45354;SDS011;31091;48.758;9.150;2023-02-28T12:32:47;11.80;;;7.07;;
45354;SDS011;31091;48.758;9.150;2023-02-28T12:35:14;13.55;;;7.05;;
45354;SDS011;31091;48.758;9.150;2023-02-28T12:37:41;11.45;;;6.43;;
45354;SDS011;31091;48.758;9.150;2023-02-28T12:40:12;10.57;;;6.93;;
45354;SDS011;31091;48.758;9.150;2023-02-28T12:42:42;10.32;;;6.65;;
45354;SDS011;31091;48.758;9.150;2023-02-28T12:47:36;9.40;;;6.18;;
45354;SDS011;31091;48.758;9.150;2023-02-28T12:50:06;10.70;;;6.93;;
45354;SDS011;31091;48.758;9.150;2023-02-28T12:55:14;11.98;;;6.85;;
45354;SDS011;31091;48.758;9.150;2023-02-28T12:57:42;14.63;;;6.95;;
45354;SDS011;31091;48.758;9.150;2023-02-28T13:00:18;10.52;;;7.05;;
45354;SDS011;31091;48.758;9.150;2023-02-28T13:10:49;10.25;;;6.93;;
45354;SDS011;31091;48.758;9.150;2023-02-28T13:13:23;11.35;;;7.28;;
45354;SDS011;31091;48.758;9.150;2023-02-28T13:15:58;10.02;;;5.82;;
45354;SDS011;31091;48.758;9.150;2023-02-28T13:18:37;12.80;;;6.47;;
45354;SDS011;31091;48.758;9.150;2023-02-28T13:21:04;12.00;;;7.00;;
45354;SDS011;31091;48.758;9.150;2023-02-28T13:23:39;10.00;;;6.88;;
45354;SDS011;31091;48.758;9.150;2023-02-28T13:26:04;11.13;;;7.72;;
45354;SDS011;31091;48.758;9.150;2023-02-28T13:31:13;12.13;;;8.35;;
45354;SDS011;31091;48.758;9.150;2023-02-28T13:38:45;14.80;;;8.00;;
45354;SDS011;31091;48.758;9.150;2023-02-28T13:51:44;10.18;;;6.78;;
45354;SDS011;31091;48.758;9.150;2023-02-28T13:59:46;11.70;;;6.97;;
45354;SDS011;31091;48.758;9.150;2023-02-28T14:07:05;12.20;;;6.57;;
45354;SDS011;31091;48.758;9.150;2023-02-28T14:09:35;10.25;;;6.85;;
45354;SDS011;31091;48.758;9.150;2023-02-28T14:17:14;12.27;;;7.20;;
45354;SDS011;31091;48.758;9.150;2023-02-28T14:19:40;11.98;;;6.80;;
45354;SDS011;31091;48.758;9.150;2023-02-28T14:37:27;9.33;;;6.20;;
45354;SDS011;31091;48.758;9.150;2023-02-28T14:39:53;11.85;;;6.85;;
45354;SDS011;31091;48.758;9.150;2023-02-28T14:42:34;11.18;;;7.90;;
45354;SDS011;31091;48.758;9.150;2023-02-28T14:45:00;11.63;;;6.82;;
45354;SDS011;31091;48.758;9.150;2023-02-28T14:47:30;10.35;;;6.28;;
45354;SDS011;31091;48.758;9.150;2023-02-28T14:49:56;10.95;;;6.65;;
45354;SDS011;31091;48.758;9.150;2023-02-28T14:52:23;12.10;;;7.13;;
45354;SDS011;31091;48.758;9.150;2023-02-28T14:54:55;11.32;;;7.65;;
45354;SDS011;31091;48.758;9.150;2023-02-28T14:57:25;10.35;;;6.43;;
45354;SDS011;31091;48.758;9.150;2023-02-28T15:04:41;12.20;;;7.23;;
45354;SDS011;31091;48.758;9.150;2023-02-28T15:07:11;10.77;;;6.20;;
45354;SDS011;31091;48.758;9.150;2023-02-28T15:09:38;11.30;;;6.75;;
45354;SDS011;31091;48.758;9.150;2023-02-28T15:12:03;9.07;;;5.95;;
45354;SDS011;31091;48.758;9.150;2023-02-28T15:14:28;12.43;;;6.95;;
45354;SDS011;31091;48.758;9.150;2023-02-28T15:17:00;13.20;;;7.55;;
45354;SDS011;31091;48.758;9.150;2023-02-28T15:19:28;12.63;;;7.13;;
45354;SDS011;31091;48.758;9.150;2023-02-28T15:22:04;11.82;;;8.23;;
45354;SDS011;31091;48.758;9.150;2023-02-28T15:24:34;11.02;;;7.10;;
45354;SDS011;31091;48.758;9.150;2023-02-28T15:27:03;13.45;;;7.53;;
45354;SDS011;31091;48.758;9.150;2023-02-28T15:29:29;13.10;;;6.88;;
45354;SDS011;31091;48.758;9.150;2023-02-28T15:31:56;9.95;;;6.25;;
45354;SDS011;31091;48.758;9.150;2023-02-28T15:34:37;12.00;;;6.63;;
45354;SDS011;31091;48.758;9.150;2023-02-28T15:37:23;13.60;;;6.85;;
45354;SDS011;31091;48.758;9.150;2023-02-28T15:39:50;13.10;;;7.93;;
45354;SDS011;31091;48.758;9.150;2023-02-28T15:42:19;14.85;;;7.78;;
45354;SDS011;31091;48.758;9.150;2023-02-28T15:44:44;12.90;;;7.13;;
45354;SDS011;31091;48.758;9.150;2023-02-28T15:47:17;12.05;;;7.45;;
45354;SDS011;31091;48.758;9.150;2023-02-28T15:52:13;11.55;;;7.00;;
45354;SDS011;31091;48.758;9.150;2023-02-28T15:54:38;11.95;;;6.85;;
45354;SDS011;31091;48.758;9.150;2023-02-28T15:57:05;13.10;;;7.20;;
45354;SDS011;31091;48.758;9.150;2023-02-28T15:59:33;12.63;;;6.90;;
45354;SDS011;31091;48.758;9.150;2023-02-28T16:02:04;10.90;;;6.95;;
45354;SDS011;31091;48.758;9.150;2023-02-28T16:04:37;11.95;;;7.30;;
45354;SDS011;31091;48.758;9.150;2023-02-28T16:07:05;13.40;;;7.82;;
45354;SDS011;31091;48.758;9.150;2023-02-28T16:09:31;15.10;;;7.30;;
45354;SDS011;31091;48.758;9.150;2023-02-28T16:11:59;10.10;;;6.70;;
45354;SDS011;31091;48.758;9.150;2023-02-28T16:14:26;10.23;;;6.22;;
45354;SDS011;31091;48.758;9.150;2023-02-28T16:16:56;11.90;;;7.32;;
45354;SDS011;31091;48.758;9.150;2023-02-28T16:19:22;11.65;;;7.15;;
45354;SDS011;31091;48.758;9.150;2023-02-28T16:21:48;14.50;;;7.78;;
45354;SDS011;31091;48.758;9.150;2023-02-28T16:24:13;12.55;;;7.55;;
45354;SDS011;31091;48.758;9.150;2023-02-28T16:26:40;11.60;;;7.60;;
45354;SDS011;31091;48.758;9.150;2023-02-28T16:29:05;13.43;;;7.63;;
45354;SDS011;31091;48.758;9.150;2023-02-28T16:31:32;14.25;;;8.30;;
45354;SDS011;31091;48.758;9.150;2023-02-28T16:33:59;13.70;;;7.28;;
45354;SDS011;31091;48.758;9.150;2023-02-28T16:36:24;13.97;;;7.90;;
45354;SDS011;31091;48.758;9.150;2023-02-28T16:38:53;15.02;;;7.72;;
45354;SDS011;31091;48.758;9.150;2023-02-28T16:41:20;12.30;;;7.78;;
45354;SDS011;31091;48.758;9.150;2023-02-28T16:43:47;12.93;;;7.80;;
45354;SDS011;31091;48.758;9.150;2023-02-28T16:46:13;12.25;;;7.80;;
45354;SDS011;31091;48.758;9.150;2023-02-28T16:48:39;14.90;;;7.43;;
45354;SDS011;31091;48.758;9.150;2023-02-28T16:51:05;12.50;;;7.40;;
45354;SDS011;31091;48.758;9.150;2023-02-28T16:53:31;12.02;;;7.18;;
45354;SDS011;31091;48.758;9.150;2023-02-28T16:55:56;12.10;;;7.03;;
45354;SDS011;31091;48.758;9.150;2023-02-28T16:58:22;12.70;;;7.82;;